Buique, Brazil
Current Conditions -  °F | °C
As of 11:00 AM on Sunday 23 Nov 2014 (Local Time) from SBMO Reporting Station
Scattered Clouds Scattered Clouds  
Wind Chill: 86°   Ceiling: Unl
Heat Index: 88°   Visibility: 6mi
Dew Point: 66°   Wind: 13mph
Humidity: 51%   Direction: 80°E
Pressure: 29.94"   Gusts: NA
Location:  8.62°S, 37.16°W
Report Text: SBMO 231400Z 08011KT 9999 SCT020 30/19 Q1014
Loading
Personal Weather Stations






























Interactive Weather Map New forecast layout! Learn more

10-Day Weather Forecast

Advertisements
Track Severe Weather on mobile